Time;durP1;ratioP1;P1;durP2;ratioP2;P2;SDS_P1;SDS_P2;PMS_P1;PMS_P2;Temp;Humidity;BMP_temperature;BMP_pressure;BME280_temperature;BME280_humidity;BME280_pressure;Samples;Min_cycle;Max_cycle;Signal;HPM_P1;HPM_P2
2020/12/01 00:01:15;;;;;;;28.00;17.70;;;;;;;-1.93;83.23;95644.72;5013260;28;20382;-76
2020/12/01 00:03:40;;;;;;;28.93;18.87;;;;;;;-2.00;83.30;95641.63;5028181;28;20213;-76
2020/12/01 00:06:06;;;;;;;32.73;19.33;;;;;;;-1.93;83.33;95646.44;5008378;28;20188;-77
2020/12/01 00:08:33;;;;;;;31.50;19.17;;;;;;;-1.93;83.43;95641.34;5012529;28;20624;-76
2020/12/01 00:10:58;;;;;;;30.53;17.43;;;;;;;-1.89;83.40;95628.41;5027417;28;20272;-76
2020/12/01 00:13:23;;;;;;;34.00;19.57;;;;;;;-1.97;83.66;95630.47;5013011;28;20644;-77
2020/12/01 00:15:49;;;;;;;28.83;18.20;;;;;;;-1.98;83.82;95611.00;5000761;28;20181;-76
2020/12/01 00:18:14;;;;;;;33.23;19.33;;;;;;;-1.95;83.94;95607.47;5021802;28;20192;-77
2020/12/01 00:20:39;;;;;;;32.03;19.47;;;;;;;-1.94;84.25;95606.59;5018203;28;20184;-77
2020/12/01 00:23:04;;;;;;;34.33;19.00;;;;;;;-1.85;84.54;95596.00;5019026;28;20700;-76
2020/12/01 00:25:30;;;;;;;32.17;19.07;;;;;;;-1.80;84.29;95588.97;5005372;28;20232;-77
2020/12/01 00:27:55;;;;;;;31.43;19.60;;;;;;;-1.83;84.20;95586.56;5027269;28;20193;-76
2020/12/01 00:30:23;;;;;;;31.23;18.90;;;;;;;-1.87;84.35;95575.69;4994863;28;20220;-77
2020/12/01 00:32:48;;;;;;;31.63;20.00;;;;;;;-1.84;85.01;95579.84;5016704;28;20205;-77
2020/12/01 00:35:16;;;;;;;35.23;19.93;;;;;;;-1.74;84.52;95568.31;5017450;28;20729;-76
2020/12/01 00:37:41;;;;;;;32.57;20.10;;;;;;;-1.79;84.77;95557.50;5026778;28;20673;-77
2020/12/01 00:40:08;;;;;;;34.37;20.17;;;;;;;-1.76;84.37;95552.28;5019195;28;20182;-77
2020/12/01 00:42:33;;;;;;;33.37;19.53;;;;;;;-1.77;84.77;95558.25;5011497;28;20552;-76
2020/12/01 00:44:58;;;;;;;35.30;20.07;;;;;;;-1.80;84.98;95554.16;5029898;28;20197;-77
2020/12/01 00:47:24;;;;;;;34.63;20.17;;;;;;;-1.71;85.37;95542.69;5025352;28;20272;-77
2020/12/01 00:49:49;;;;;;;30.90;19.27;;;;;;;-1.76;85.61;95540.38;5025982;28;20217;-76
2020/12/01 00:52:14;;;;;;;36.77;20.43;;;;;;;-1.72;86.05;95546.16;4994347;28;20209;-77
2020/12/01 00:54:40;;;;;;;33.30;19.23;;;;;;;-1.71;85.74;95542.69;5018001;28;20197;-76
2020/12/01 00:57:05;;;;;;;32.27;20.10;;;;;;;-1.69;86.37;95533.25;5012713;28;20185;-76
2020/12/01 00:59:31;;;;;;;31.97;19.43;;;;;;;-1.62;86.21;95541.44;5028769;28;20182;-76
2020/12/01 01:01:56;;;;;;;28.67;19.40;;;;;;;-1.64;86.31;95554.25;5025649;28;20682;-76
2020/12/01 01:04:21;;;;;;;31.33;19.00;;;;;;;-1.61;86.43;95582.09;5022479;28;20201;-76
2020/12/01 01:06:48;;;;;;;30.63;18.93;;;;;;;-1.59;86.64;95582.88;5018946;28;20217;-76
2020/12/01 01:09:13;;;;;;;32.60;17.93;;;;;;;-1.60;86.79;95573.56;5026914;28;20237;-77
2020/12/01 01:11:38;;;;;;;30.37;17.13;;;;;;;-1.60;86.54;95586.28;5010740;28;20826;-77
2020/12/01 01:14:04;;;;;;;28.30;16.57;;;;;;;-1.59;87.02;95574.38;5015000;28;20188;-76
2020/12/01 01:16:29;;;;;;;26.30;17.30;;;;;;;-1.60;87.02;95571.00;5029868;28;20216;-77
2020/12/01 01:18:54;;;;;;;27.97;17.27;;;;;;;-1.67;87.27;95564.59;5027963;28;20196;-76
2020/12/01 01:21:23;;;;;;;25.43;16.37;;;;;;;-1.68;86.99;95564.63;5027732;28;20192;-76
2020/12/01 01:23:50;;;;;;;27.37;17.33;;;;;;;-1.68;86.81;95546.81;5030677;28;20212;-76
2020/12/01 01:26:15;;;;;;;28.47;16.77;;;;;;;-1.68;86.78;95545.09;5043041;28;20194;-76
2020/12/01 01:28:40;;;;;;;31.97;17.67;;;;;;;-1.74;87.23;95541.13;4999883;28;20229;-77
2020/12/01 01:31:05;;;;;;;27.20;17.90;;;;;;;-1.78;87.15;95529.44;5027191;28;20660;-77
2020/12/01 01:33:31;;;;;;;28.43;17.50;;;;;;;-1.79;86.96;95534.59;5015716;28;20205;-76
2020/12/01 01:35:56;;;;;;;29.73;17.67;;;;;;;-1.81;86.99;95536.41;5023062;28;20188;-76
2020/12/01 01:38:21;;;;;;;32.33;18.67;;;;;;;-1.81;87.36;95526.22;5014700;28;20241;-76
2020/12/01 01:40:47;;;;;;;27.40;16.93;;;;;;;-1.81;87.00;95526.22;5016031;28;20214;-76
2020/12/01 01:43:13;;;;;;;33.27;18.77;;;;;;;-1.81;87.26;95523.69;5022594;28;20214;-76
2020/12/01 01:45:43;;;;;;;29.97;18.07;;;;;;;-1.74;87.48;95514.84;5013418;28;20195;-76
2020/12/01 01:48:20;;;;;;;30.73;18.10;;;;;;;-1.70;87.36;95511.25;4997702;28;20197;-76
2020/12/01 01:51:14;;;;;;;29.97;17.50;;;;;;;-1.63;87.03;95510.06;5001932;28;20226;-76
2020/12/01 01:53:43;;;;;;;29.97;18.30;;;;;;;-1.58;87.15;95503.03;4999933;28;20268;-77
2020/12/01 01:56:09;;;;;;;29.73;18.27;;;;;;;-1.62;87.47;95490.50;5020682;28;20186;-76
2020/12/01 01:58:37;;;;;;;29.87;18.13;;;;;;;-1.56;87.35;95477.47;5014287;28;20205;-76
2020/12/01 02:01:07;;;;;;;27.97;17.70;;;;;;;-1.45;87.46;95477.75;5028485;28;20837;-76
2020/12/01 02:03:42;;;;;;;25.60;15.97;;;;;;;-1.40;87.24;95465.63;5031152;28;20242;-76
2020/12/01 02:06:23;;;;;;;28.93;17.33;;;;;;;-1.39;87.36;95469.00;5019422;28;20244;-76
2020/12/01 02:09:00;;;;;;;29.67;17.87;;;;;;;-1.40;87.55;95454.63;5041141;28;20185;-76
2020/12/01 02:11:27;;;;;;;29.83;17.90;;;;;;;-1.28;87.61;95438.69;5014462;28;20236;-76
2020/12/01 02:14:05;;;;;;;32.40;18.93;;;;;;;-1.27;87.34;95432.69;5036522;28;20185;-76
2020/12/01 02:16:32;;;;;;;30.93;17.93;;;;;;;-1.32;87.40;95427.03;5033037;28;20271;-76
2020/12/01 02:18:58;;;;;;;32.67;17.40;;;;;;;-1.26;87.22;95422.41;5027594;28;20242;-76
2020/12/01 02:21:30;;;;;;;30.87;17.83;;;;;;;-1.29;87.44;95416.66;5012707;28;20186;-76
2020/12/01 02:23:56;;;;;;;31.87;18.80;;;;;;;-1.29;87.41;95414.13;5009906;28;20188;-76
2020/12/01 02:26:22;;;;;;;32.27;19.60;;;;;;;-1.28;87.56;95413.22;5012088;28;20186;-76
2020/12/01 02:28:47;;;;;;;30.77;17.83;;;;;;;-1.29;87.41;95404.75;5014525;28;20202;-76
2020/12/01 02:31:13;;;;;;;32.03;17.77;;;;;;;-1.29;87.44;95397.13;5018215;28;20192;-76
2020/12/01 02:33:38;;;;;;;29.93;17.90;;;;;;;-1.26;87.59;95388.47;5007126;28;20612;-76
2020/12/01 02:36:03;;;;;;;29.07;16.47;;;;;;;-1.22;88.02;95379.78;5011882;28;20630;-76
2020/12/01 02:38:55;;;;;;;27.57;16.37;;;;;;;-1.24;87.68;95379.84;5013559;28;20214;-76
2020/12/01 02:41:21;;;;;;;30.40;16.67;;;;;;;-1.25;88.19;95377.38;5026125;28;20181;-76
2020/12/01 02:43:46;;;;;;;24.53;15.50;;;;;;;-1.25;87.85;95372.28;5024986;28;20213;-76
2020/12/01 02:46:11;;;;;;;23.37;13.53;;;;;;;-1.15;88.07;95365.78;5025823;28;20193;-76
2020/12/01 02:48:37;;;;;;;23.13;14.23;;;;;;;-1.11;88.31;95369.84;5011524;28;20669;-74
2020/12/01 02:51:02;;;;;;;23.87;13.10;;;;;;;-1.08;87.99;95367.13;5013528;28;20210;-76
2020/12/01 02:53:27;;;;;;;22.13;13.17;;;;;;;-1.05;88.23;95355.97;5014273;28;20213;-76
2020/12/01 02:55:53;;;;;;;22.07;13.67;;;;;;;-1.11;88.31;95344.34;5022684;28;20226;-76
2020/12/01 02:58:18;;;;;;;22.20;12.37;;;;;;;-1.09;88.35;95345.09;5015627;28;20673;-76
2020/12/01 03:00:43;;;;;;;20.23;11.90;;;;;;;-1.08;88.25;95344.19;5029937;28;20264;-76
2020/12/01 03:03:10;;;;;;;19.90;11.43;;;;;;;-1.03;88.44;95332.03;5015570;28;20206;-76
2020/12/01 03:05:35;;;;;;;17.47;10.90;;;;;;;-1.00;88.12;95336.94;5023765;28;20185;-76
2020/12/01 03:08:00;;;;;;;18.10;10.93;;;;;;;-1.06;88.13;95327.09;5013894;28;20269;-76
2020/12/01 03:10:26;;;;;;;18.87;11.20;;;;;;;-1.08;88.34;95323.78;5017733;28;20596;-76
2020/12/01 03:12:51;;;;;;;15.77;9.90;;;;;;;-1.03;88.61;95328.66;5042554;28;20222;-76
2020/12/01 03:15:18;;;;;;;16.70;9.97;;;;;;;-0.97;88.85;95321.50;5013890;28;20195;-76
2020/12/01 03:17:43;;;;;;;19.60;10.13;;;;;;;-1.03;89.15;95324.38;5020918;28;20198;-76
2020/12/01 03:20:08;;;;;;;15.53;9.40;;;;;;;-0.98;88.81;95319.84;5026694;28;20256;-75
2020/12/01 03:22:34;;;;;;;15.43;8.80;;;;;;;-0.98;88.78;95324.13;5024843;28;20206;-76
2020/12/01 03:24:59;;;;;;;12.03;8.90;;;;;;;-0.93;88.97;95317.06;5016608;28;20634;-76
2020/12/01 03:27:24;;;;;;;14.60;8.90;;;;;;;-0.93;88.88;95325.53;5029393;28;20193;-76
2020/12/01 03:29:49;;;;;;;15.17;8.47;;;;;;;-0.92;88.36;95328.88;5022262;28;20218;-76
2020/12/01 03:32:15;;;;;;;15.90;8.90;;;;;;;-0.95;88.59;95319.69;5025473;28;20245;-76
2020/12/01 03:34:40;;;;;;;14.63;8.80;;;;;;;-0.98;88.60;95319.84;5009698;28;20622;-76
2020/12/01 03:37:05;;;;;;;16.57;9.13;;;;;;;-1.00;88.85;95320.84;5012594;28;20416;-76
2020/12/01 03:39:31;;;;;;;16.60;9.70;;;;;;;-1.01;88.53;95314.09;5029715;28;20181;-76
2020/12/01 03:41:56;;;;;;;20.07;10.73;;;;;;;-1.05;88.98;95310.09;5030918;28;20214;-76
2020/12/01 03:44:21;;;;;;;16.13;9.97;;;;;;;-1.06;88.53;95322.00;5030618;28;20673;-76
2020/12/01 03:46:47;;;;;;;15.63;9.70;;;;;;;-1.07;88.82;95314.41;5014280;28;20217;-76
2020/12/01 03:49:12;;;;;;;17.77;10.73;;;;;;;-1.09;88.61;95322.16;5023687;28;20259;-76
2020/12/01 03:51:37;;;;;;;18.60;11.80;;;;;;;-1.08;88.61;95313.59;5010148;28;20282;-76
2020/12/01 03:54:03;;;;;;;20.30;12.00;;;;;;;-1.07;88.96;95324.63;5012110;28;20237;-76
2020/12/01 03:56:28;;;;;;;23.43;13.33;;;;;;;-1.06;89.11;95314.38;5011949;28;20186;-76
2020/12/01 03:58:54;;;;;;;19.97;12.77;;;;;;;-1.08;88.90;95321.25;5015407;28;20368;-75
2020/12/01 04:01:19;;;;;;;21.20;12.60;;;;;;;-1.07;89.19;95315.25;5022340;28;20538;-76
2020/12/01 04:03:44;;;;;;;22.40;13.73;;;;;;;-1.06;89.11;95311.81;5015448;28;20206;-76
2020/12/01 04:06:10;;;;;;;21.80;13.07;;;;;;;-1.08;88.89;95308.50;5027271;28;20229;-76
2020/12/01 04:08:35;;;;;;;23.13;14.83;;;;;;;-1.09;89.07;95306.88;5024343;28;20193;-76
2020/12/01 04:11:03;;;;;;;26.97;14.87;;;;;;;-1.11;89.25;95297.66;5029409;28;20213;-76
2020/12/01 04:13:28;;;;;;;26.70;14.53;;;;;;;-1.14;88.84;95298.66;5006803;28;20620;-76
2020/12/01 04:15:54;;;;;;;24.47;14.53;;;;;;;-1.15;88.90;95295.28;5035764;28;20247;-76
2020/12/01 04:18:19;;;;;;;26.60;15.43;;;;;;;-1.14;89.15;95293.56;5030300;28;20220;-75
2020/12/01 04:20:44;;;;;;;26.47;15.37;;;;;;;-1.12;88.96;95289.19;5025938;28;20304;-76
2020/12/01 04:23:09;;;;;;;25.87;15.73;;;;;;;-1.11;88.78;95284.94;5027817;28;20286;-76
2020/12/01 04:25:35;;;;;;;30.60;15.77;;;;;;;-1.11;89.06;95287.47;5028939;28;20215;-76
2020/12/01 04:28:00;;;;;;;23.60;13.43;;;;;;;-1.08;89.01;95285.56;5023514;28;20652;-75
2020/12/01 04:30:26;;;;;;;20.67;13.00;;;;;;;-1.02;88.95;95281.88;5017212;28;20670;-75
2020/12/01 04:32:52;;;;;;;18.60;11.10;;;;;;;-0.98;89.28;95281.59;5009590;28;20216;-75
2020/12/01 04:35:20;;;;;;;16.73;10.07;;;;;;;-0.93;89.30;95282.19;5030088;28;20202;-75
2020/12/01 04:37:45;;;;;;;19.70;10.77;;;;;;;-0.89;89.42;95283.66;5013850;28;20190;-75
2020/12/01 04:40:15;;;;;;;18.97;12.17;;;;;;;-0.92;89.13;95281.28;5025769;28;20183;-75
2020/12/01 04:42:53;;;;;;;18.27;11.43;;;;;;;-0.93;88.95;95279.63;5000100;28;20207;-76
2020/12/01 04:45:20;;;;;;;16.63;11.00;;;;;;;-0.93;89.19;95279.63;5017303;28;20229;-75
2020/12/01 04:47:55;;;;;;;17.77;10.87;;;;;;;-0.94;88.96;95275.44;5015079;28;20241;-75
2020/12/01 04:50:43;;;;;;;16.97;11.00;;;;;;;-0.95;89.66;95278.91;5027611;28;20276;-75
2020/12/01 04:53:14;;;;;;;17.53;10.53;;;;;;;-0.93;89.30;95277.09;5023243;28;20209;-75
2020/12/01 04:56:09;;;;;;;15.23;9.93;;;;;;;-0.92;89.33;95272.81;5027348;28;20197;-76
2020/12/01 04:59:12;;;;;;;16.03;9.47;;;;;;;-0.95;89.22;95273.81;5021609;28;20186;-75
2020/12/01 05:01:48;;;;;;;13.30;7.87;;;;;;;-0.91;89.42;95261.69;5034575;28;20201;-76
2020/12/01 05:04:22;;;;;;;14.17;9.10;;;;;;;-0.91;89.20;95264.25;5028015;28;20183;-75
2020/12/01 05:07:02;;;;;;;16.30;9.50;;;;;;;-0.92;89.44;95270.25;5030384;28;20189;-76
2020/12/01 05:09:40;;;;;;;15.63;8.27;;;;;;;-0.89;89.17;95265.81;5023344;28;20195;-75
2020/12/01 05:12:12;;;;;;;11.17;7.00;;;;;;;-0.84;89.22;95264.75;5029055;28;20215;-76
2020/12/01 05:14:42;;;;;;;8.07;5.30;;;;;;;-0.79;89.24;95263.59;5021432;28;20198;-75
2020/12/01 05:17:32;;;;;;;12.13;7.20;;;;;;;-0.78;89.12;95261.84;5028646;28;20186;-76
2020/12/01 05:19:57;;;;;;;10.57;7.13;;;;;;;-0.78;89.19;95257.56;5028464;28;20280;-76
2020/12/01 05:22:23;;;;;;;10.10;6.60;;;;;;;-0.79;89.05;95255.13;5027122;28;20277;-76
2020/12/01 05:24:51;;;;;;;9.20;6.13;;;;;;;-0.79;89.25;95255.94;5020768;28;20288;-75
2020/12/01 05:27:30;;;;;;;7.40;5.60;;;;;;;-0.79;89.23;95257.66;5029509;28;20190;-75
2020/12/01 05:30:15;;;;;;;8.63;5.37;;;;;;;-0.79;89.17;95255.13;5042044;28;20745;-75
2020/12/01 05:32:49;;;;;;;8.73;5.13;;;;;;;-0.77;89.32;95261.75;5022391;28;20771;-75
2020/12/01 05:35:27;;;;;;;8.47;5.53;;;;;;;-0.73;89.17;95262.41;5022698;28;20182;-76
2020/12/01 05:38:04;;;;;;;7.33;5.53;;;;;;;-0.76;88.97;95260.84;5043186;28;20233;-75
2020/12/01 05:40:33;;;;;;;9.17;5.47;;;;;;;-0.75;89.09;95259.13;5026368;28;20193;-75
2020/12/01 05:42:59;;;;;;;9.07;6.60;;;;;;;-0.75;89.17;95262.50;5022590;28;20227;-74
2020/12/01 05:45:32;;;;;;;10.63;7.27;;;;;;;-0.77;89.42;95266.03;5021249;28;20183;-75
2020/12/01 05:48:13;;;;;;;10.07;6.67;;;;;;;-0.75;88.86;95261.69;5029795;28;20201;-76
2020/12/01 05:51:01;;;;;;;9.07;6.60;;;;;;;-0.79;89.29;95253.38;5015394;28;20289;-76
2020/12/01 05:53:26;;;;;;;8.10;5.40;;;;;;;-0.76;88.96;95257.47;5023014;28;20245;-76
2020/12/01 05:56:01;;;;;;;6.73;5.20;;;;;;;-0.77;89.11;95261.75;5027746;28;20266;-75
2020/12/01 05:58:36;;;;;;;7.83;4.87;;;;;;;-0.76;88.78;95262.59;5031267;28;20185;-75
2020/12/01 06:01:02;;;;;;;5.87;4.13;;;;;;;-0.75;89.22;95259.94;5020668;28;20521;-76
2020/12/01 06:03:51;;;;;;;5.40;3.57;;;;;;;-0.73;88.87;95260.66;5021821;28;20202;-76
2020/12/01 06:06:17;;;;;;;4.00;3.00;;;;;;;-0.71;88.99;95263.13;5028711;28;20225;-75
2020/12/01 06:08:49;;;;;;;3.77;2.67;;;;;;;-0.72;88.69;95254.66;5031550;28;20725;-75
2020/12/01 06:11:36;;;;;;;3.10;2.80;;;;;;;-0.74;88.68;95255.66;5050767;28;20742;-75
2020/12/01 06:14:18;;;;;;;3.20;2.87;;;;;;;-0.75;88.80;95249.75;5040002;28;20185;-75
2020/12/01 06:16:49;;;;;;;4.77;3.33;;;;;;;-0.79;88.86;95247.47;5045510;28;20238;-75
2020/12/01 06:19:26;;;;;;;4.97;3.73;;;;;;;-0.81;88.88;95252.63;5050642;28;20250;-75
2020/12/01 06:21:57;;;;;;;5.60;3.13;;;;;;;-0.82;88.77;95255.28;5023442;28;20233;-76
2020/12/01 06:24:55;;;;;;;5.67;3.60;;;;;;;-0.81;89.00;95256.91;5040505;28;20185;-74
2020/12/01 06:27:35;;;;;;;5.07;3.70;;;;;;;-0.81;88.68;95247.53;5050908;28;20185;-76
2020/12/01 06:30:22;;;;;;;6.23;2.83;;;;;;;-0.79;88.61;95250.03;5043919;28;20217;-75
2020/12/01 06:32:56;;;;;;;3.90;2.10;;;;;;;-0.81;88.64;95250.06;5039339;28;20205;-75
2020/12/01 06:36:09;;;;;;;2.40;2.20;;;;;;;-0.83;88.64;95253.63;5048602;28;20190;-75
2020/12/01 06:38:58;;;;;;;3.17;2.37;;;;;;;-0.81;88.98;95249.25;5054118;28;20196;-75
2020/12/01 06:41:24;;;;;;;2.10;1.80;;;;;;;-0.80;88.54;95253.44;5046069;28;20657;-75
2020/12/01 06:43:53;;;;;;;2.73;2.07;;;;;;;-0.77;88.63;95250.75;5026969;28;20186;-75
2020/12/01 06:46:38;;;;;;;2.50;2.30;;;;;;;-0.77;88.78;95256.66;5016732;28;20556;-75
2020/12/01 06:49:05;;;;;;;2.60;2.23;;;;;;;-0.81;88.81;95255.19;5018410;28;20185;-75
2020/12/01 06:51:31;;;;;;;4.23;3.40;;;;;;;-0.79;88.22;95255.13;5052643;28;20193;-76
2020/12/01 06:54:10;;;;;;;3.47;2.73;;;;;;;-0.80;88.59;95258.53;5043750;28;20187;-76
2020/12/01 06:56:35;;;;;;;2.60;2.07;;;;;;;-0.79;88.20;95253.38;5043575;28;20178;-75
2020/12/01 06:59:10;;;;;;;2.73;2.03;;;;;;;-0.81;88.65;95251.81;5036109;28;20551;-75
2020/12/01 07:01:36;;;;;;;2.80;2.07;;;;;;;-0.81;88.46;95239.06;5028781;28;20189;-75
2020/12/01 07:04:07;;;;;;;3.07;2.27;;;;;;;-0.83;88.53;95238.34;5025457;28;20593;-75
2020/12/01 07:06:32;;;;;;;2.43;2.23;;;;;;;-0.83;88.74;95246.81;5035108;28;20206;-75
2020/12/01 07:09:28;;;;;;;2.87;2.00;;;;;;;-0.80;88.61;95249.16;5046785;28;20212;-75
2020/12/01 07:12:16;;;;;;;2.50;1.57;;;;;;;-0.76;88.01;95249.84;5036223;28;20217;-75
2020/12/01 07:14:45;;;;;;;1.90;1.50;;;;;;;-0.74;88.44;95248.84;5033090;28;20194;-75
2020/12/01 07:17:20;;;;;;;2.17;1.97;;;;;;;-0.73;88.19;95252.19;5015274;28;20269;-75
2020/12/01 07:20:24;;;;;;;3.23;2.30;;;;;;;-0.71;88.33;95250.38;5039749;28;20332;-76
2020/12/01 07:22:54;;;;;;;3.57;1.97;;;;;;;-0.71;88.18;95253.75;5043848;28;20223;-75
2020/12/01 07:25:38;;;;;;;2.00;1.80;;;;;;;-0.69;88.19;95253.69;5026214;28;20181;-75
2020/12/01 07:28:03;;;;;;;4.83;2.20;;;;;;;-0.71;88.15;95258.03;5038788;28;20261;-75
2020/12/01 07:30:32;;;;;;;3.00;2.17;;;;;;;-0.73;88.07;95252.19;5041801;28;20284;-75
2020/12/01 07:32:57;;;;;;;3.23;1.90;;;;;;;-0.72;87.97;95257.22;5039831;28;20221;-76
2020/12/01 07:35:43;;;;;;;2.20;1.93;;;;;;;-0.74;87.79;95253.13;5045560;28;20524;-75
2020/12/01 07:38:17;;;;;;;2.27;2.07;;;;;;;-0.76;88.02;95263.41;5043565;28;20185;-75
2020/12/01 07:40:46;;;;;;;2.57;1.80;;;;;;;-0.74;87.98;95259.03;5039154;28;20602;-75
2020/12/01 07:43:14;;;;;;;2.63;1.80;;;;;;;-0.77;87.96;95261.75;5056938;28;20208;-75
2020/12/01 07:45:39;;;;;;;2.63;2.17;;;;;;;-0.80;88.28;95261.91;5046132;28;20546;-75
2020/12/01 07:48:04;;;;;;;3.50;2.33;;;;;;;-0.75;87.90;95264.22;5036862;28;20189;-75
2020/12/01 07:50:31;;;;;;;2.00;1.67;;;;;;;-0.72;87.92;95269.13;5048736;28;20770;-74
2020/12/01 07:53:00;;;;;;;2.17;1.77;;;;;;;-0.71;87.93;95270.78;5042793;28;20276;-76
2020/12/01 07:55:37;;;;;;;2.80;2.20;;;;;;;-0.76;87.59;95272.78;5044493;28;20269;-74
2020/12/01 07:58:15;;;;;;;2.17;1.70;;;;;;;-0.71;87.67;95266.50;5033575;28;20197;-75
2020/12/01 08:00:40;;;;;;;2.43;1.97;;;;;;;-0.66;87.54;95258.59;5020273;28;20184;-75
2020/12/01 08:03:19;;;;;;;2.43;2.20;;;;;;;-0.68;87.97;95268.06;5040951;28;20208;-75
2020/12/01 08:05:46;;;;;;;4.10;2.33;;;;;;;-0.68;87.47;95265.53;5029707;28;20269;-73
2020/12/01 08:08:16;;;;;;;4.17;2.20;;;;;;;-0.67;87.58;95267.97;5036199;28;20544;-73
2020/12/01 08:10:43;;;;;;;3.23;2.40;;;;;;;-0.64;87.79;95264.44;5048983;28;20193;-73
2020/12/01 08:13:08;;;;;;;3.80;2.30;;;;;;;-0.59;87.58;95260.72;5046724;28;20201;-72
2020/12/01 08:15:34;;;;;;;2.70;2.40;;;;;;;-0.53;87.30;95262.13;5035838;28;20551;-73
2020/12/01 08:18:03;;;;;;;4.03;3.20;;;;;;;-0.57;87.16;95271.66;5025113;28;20190;-73
2020/12/01 08:20:29;;;;;;;3.77;2.87;;;;;;;-0.45;87.10;95261.66;5043063;28;20190;-73
2020/12/01 08:23:06;;;;;;;5.27;3.77;;;;;;;-0.48;87.06;95266.94;5048019;28;20208;-73
2020/12/01 08:25:32;;;;;;;4.60;3.47;;;;;;;-0.47;87.24;95266.03;5034778;28;20197;-72
2020/12/01 08:28:18;;;;;;;5.40;3.87;;;;;;;-0.48;87.28;95265.22;5044178;28;20194;-72
2020/12/01 08:30:54;;;;;;;4.43;3.63;;;;;;;-0.47;86.94;95271.94;5044128;28;20229;-73
2020/12/01 08:33:32;;;;;;;6.23;3.73;;;;;;;-0.42;87.06;95271.69;5028362;28;20204;-76
2020/12/01 08:36:20;;;;;;;5.83;3.90;;;;;;;-0.43;87.23;95263.22;5034846;28;20196;-75
2020/12/01 08:39:01;;;;;;;5.77;3.93;;;;;;;-0.41;87.12;95263.13;5046365;28;20258;-76
2020/12/01 08:41:35;;;;;;;5.03;3.90;;;;;;;-0.42;87.22;95254.66;5021826;28;20260;-75
2020/12/01 08:44:07;;;;;;;6.47;3.77;;;;;;;-0.38;86.87;95257.84;5049502;28;20709;-75
2020/12/01 08:46:33;;;;;;;6.23;3.90;;;;;;;-0.41;86.96;95265.69;5043317;28;20260;-76
2020/12/01 08:49:06;;;;;;;5.27;3.60;;;;;;;-0.35;87.10;95266.16;5036451;28;20251;-75
2020/12/01 08:51:47;;;;;;;5.77;4.17;;;;;;;-0.31;87.08;95266.78;5042586;28;20246;-76
2020/12/01 08:54:16;;;;;;;4.47;3.70;;;;;;;-0.22;86.95;95275.66;5025890;28;20201;-76
2020/12/01 08:56:47;;;;;;;4.60;3.20;;;;;;;-0.19;86.64;95270.34;5041138;28;20247;-75
2020/12/01 08:59:22;;;;;;;4.53;2.93;;;;;;;-0.18;86.66;95262.59;5038475;28;20185;-75
2020/12/01 09:01:48;;;;;;;4.40;3.33;;;;;;;-0.13;86.48;95252.94;5028746;28;20211;-75
2020/12/01 09:04:22;;;;;;;4.10;3.00;;;;;;;-0.11;86.38;95255.41;5048130;28;20197;-75
2020/12/01 09:06:47;;;;;;;3.37;2.80;;;;;;;-0.14;86.34;95253.88;5045490;28;20271;-75
2020/12/01 09:09:28;;;;;;;2.73;2.53;;;;;;;-0.11;86.38;95258.78;5039017;28;20272;-75
2020/12/01 09:14:59;;;;;;;10.30;3.13;;;;;;;-0.18;86.50;95264.34;5041386;28;20216;-76
2020/12/01 09:17:49;;;;;;;4.17;2.70;;;;;;;-0.15;86.52;95274.38;5046330;28;20242;-75
2020/12/01 09:23:18;;;;;;;3.10;2.60;;;;;;;0.01;86.23;95271.75;5054613;28;20263;-76
2020/12/01 09:25:45;;;;;;;4.73;2.70;;;;;;;-0.05;86.07;95286.50;5025588;28;20189;-76
2020/12/01 09:28:18;;;;;;;3.40;2.87;;;;;;;-0.01;85.92;95279.47;5036148;28;20185;-76
2020/12/01 09:30:44;;;;;;;3.30;3.00;;;;;;;0.02;86.09;95288.72;5045995;28;20752;-76
2020/12/01 09:33:13;;;;;;;4.17;3.00;;;;;;;0.07;85.82;95281.59;5047156;28;20198;-75
2020/12/01 09:35:38;;;;;;;4.33;3.20;;;;;;;0.04;85.97;95292.81;5034680;28;20209;-75
2020/12/01 09:38:04;;;;;;;4.13;2.97;;;;;;;0.08;85.78;95288.34;5033927;28;20186;-76
2020/12/01 09:40:32;;;;;;;4.20;3.10;;;;;;;0.11;85.67;95288.16;5045142;28;20190;-75
2020/12/01 09:43:04;;;;;;;5.70;3.47;;;;;;;0.07;85.20;95279.03;5045823;28;20251;-75
2020/12/01 09:45:31;;;;;;;4.60;3.13;;;;;;;0.05;85.36;95296.19;5036354;28;20179;-75
2020/12/01 09:48:12;;;;;;;3.77;3.00;;;;;;;-0.04;85.18;95292.44;5048083;28;20179;-75
2020/12/01 09:50:39;;;;;;;3.83;2.67;;;;;;;0.00;85.67;95288.81;5047930;28;20198;-76
2020/12/01 10:04:45;;;;;;;4.30;3.33;;;;;;;-0.10;85.98;95300.44;5047814;28;20209;-75
2020/12/01 10:09:24;;;;;;;3.83;3.20;;;;;;;-0.19;86.17;95300.97;5050356;28;20189;-75
2020/12/01 10:25:51;;;;;;;4.77;3.87;;;;;;;-0.22;86.49;95319.84;5048284;28;20895;-76
2020/12/01 10:36:25;;;;;;;4.77;4.00;;;;;;;-0.08;86.31;95308.84;5041321;28;20313;-75
2020/12/01 10:38:50;;;;;;;4.97;4.10;;;;;;;-0.09;86.58;95309.75;5037773;28;20190;-75
2020/12/01 10:41:16;;;;;;;5.37;3.87;;;;;;;-0.09;86.64;95305.47;5040347;28;20703;-75
2020/12/01 10:43:41;;;;;;;4.53;3.77;;;;;;;-0.08;86.80;95303.75;5046631;28;20209;-75
2020/12/01 10:46:11;;;;;;;8.53;4.63;;;;;;;-0.05;86.69;95308.66;5046004;28;20246;-76
2020/12/01 10:48:36;;;;;;;7.37;4.63;;;;;;;-0.04;86.49;95306.03;5038136;28;20186;-77
2020/12/01 10:51:02;;;;;;;6.50;5.10;;;;;;;-0.04;86.72;95307.75;5036632;28;20206;-76
2020/12/01 10:53:27;;;;;;;6.70;4.70;;;;;;;-0.12;86.62;95310.75;5043514;28;20210;-75
2020/12/01 10:55:52;;;;;;;8.03;6.17;;;;;;;-0.11;86.75;95309.00;5040369;28;20607;-76
2020/12/01 10:58:18;;;;;;;9.67;6.90;;;;;;;-0.05;86.95;95316.31;5041029;28;20243;-75
2020/12/01 11:00:43;;;;;;;7.67;5.93;;;;;;;-0.02;86.76;95313.59;5042841;28;20261;-75
2020/12/01 11:03:08;;;;;;;12.70;9.50;;;;;;;-0.02;86.56;95318.69;5042411;28;20216;-75
2020/12/01 11:05:33;;;;;;;10.23;7.23;;;;;;;0.00;86.71;95322.00;5019997;28;20612;-75
2020/12/01 11:07:59;;;;;;;8.37;6.83;;;;;;;-0.03;86.99;95324.72;5017276;28;20181;-75
2020/12/01 11:10:26;;;;;;;9.53;7.23;;;;;;;-0.06;87.06;95319.78;5021279;28;20211;-76
2020/12/01 11:12:51;;;;;;;12.40;9.50;;;;;;;-0.01;86.98;95320.31;5043571;28;20198;-76
2020/12/01 11:15:17;;;;;;;14.87;9.83;;;;;;;0.02;86.88;95315.06;5020502;28;20225;-76
2020/12/01 11:17:42;;;;;;;12.80;8.17;;;;;;;0.11;86.74;95316.25;5028375;28;20187;-76
2020/12/01 11:20:08;;;;;;;136.17;55.87;;;;;;;0.19;86.77;95319.19;5019371;28;20182;-76
2020/12/01 11:22:34;;;;;;;60.20;33.23;;;;;;;0.25;86.31;95314.50;5015360;28;20237;-75
2020/12/01 11:24:59;;;;;;;25.93;16.97;;;;;;;0.28;86.67;95316.09;5021855;28;20195;-76
2020/12/01 11:27:25;;;;;;;12.80;9.83;;;;;;;0.33;86.34;95319.16;5032175;28;20185;-75
2020/12/01 11:29:50;;;;;;;9.07;5.63;;;;;;;0.38;86.26;95311.25;5022281;28;20226;-76
2020/12/01 11:32:16;;;;;;;5.93;5.03;;;;;;;0.40;85.72;95312.78;5020226;28;20207;-76
2020/12/01 11:34:41;;;;;;;4.90;3.60;;;;;;;0.46;85.77;95309.06;5014138;28;20175;-75
2020/12/01 11:37:07;;;;;;;6.00;4.53;;;;;;;0.45;85.50;95307.41;5020225;28;20277;-75
2020/12/01 11:39:32;;;;;;;7.93;5.20;;;;;;;0.45;85.48;95310.78;5027157;28;20182;-75
2020/12/01 11:41:57;;;;;;;11.27;6.83;;;;;;;0.50;85.18;95310.50;5026295;28;20209;-75
2020/12/01 11:44:23;;;;;;;12.70;7.87;;;;;;;0.49;85.82;95311.41;5026449;28;20190;-75
2020/12/01 11:46:49;;;;;;;26.50;14.40;;;;;;;0.50;85.43;95307.94;5023341;28;20209;-75
2020/12/01 11:49:14;;;;;;;21.87;11.57;;;;;;;0.58;85.10;95315.97;5029704;28;20560;-75
2020/12/01 11:51:41;;;;;;;21.63;13.23;;;;;;;0.55;84.83;95308.50;5022571;28;20187;-75
2020/12/01 11:54:10;;;;;;;17.50;10.43;;;;;;;0.47;84.60;95308.13;5014570;28;20179;-75
2020/12/01 11:56:36;;;;;;;18.83;10.93;;;;;;;0.48;84.90;95309.78;5020287;28;20183;-75
2020/12/01 11:59:01;;;;;;;13.57;8.60;;;;;;;0.56;85.08;95305.84;5016331;28;20186;-75
2020/12/01 12:01:27;;;;;;;12.90;9.20;;;;;;;0.57;84.73;95315.16;5008948;28;20187;-75
2020/12/01 12:03:52;;;;;;;10.63;7.73;;;;;;;0.55;84.75;95319.53;5022429;28;20193;-75
2020/12/01 12:06:17;;;;;;;13.13;8.47;;;;;;;0.60;84.67;95316.69;5015436;28;20655;-75
2020/12/01 12:08:43;;;;;;;6.73;5.57;;;;;;;0.63;84.77;95316.53;5019992;28;20186;-75
2020/12/01 12:11:09;;;;;;;9.87;8.50;;;;;;;0.70;84.67;95315.22;5018034;28;20290;-75
2020/12/01 12:13:34;;;;;;;10.17;9.17;;;;;;;0.69;84.81;95325.53;5026972;28;20234;-75
2020/12/01 12:15:59;;;;;;;4.00;3.70;;;;;;;0.67;84.60;95323.06;5025972;28;20198;-75
2020/12/01 12:18:24;;;;;;;4.20;3.00;;;;;;;0.71;84.53;95322.00;5015124;28;20649;-75
2020/12/01 12:20:50;;;;;;;3.73;3.17;;;;;;;0.75;84.58;95315.75;5021122;28;20184;-75